createdAt,value
2023-02-15T00:00:25.287Z,12.50
2023-02-15T00:03:13.681Z,13.90
2023-02-15T00:05:42.308Z,14.80
2023-02-15T00:08:10.556Z,12.10
2023-02-15T00:10:39.035Z,13.00
2023-02-15T00:13:07.519Z,11.90
2023-02-15T00:15:35.902Z,12.90
2023-02-15T00:18:04.892Z,13.20
2023-02-15T00:20:33.488Z,12.90
2023-02-15T00:23:01.747Z,12.30
2023-02-15T00:25:30.556Z,14.70
2023-02-15T00:28:01.491Z,14.00
2023-02-15T00:30:29.922Z,13.10
2023-02-15T00:32:58.379Z,13.50
2023-02-15T00:35:26.820Z,15.10
2023-02-15T00:37:55.094Z,11.20
2023-02-15T00:40:24.084Z,12.40
2023-02-15T00:42:52.359Z,12.50
2023-02-15T00:45:22.583Z,14.90
2023-02-15T00:47:50.962Z,11.20
2023-02-15T00:50:20.238Z,13.90
2023-02-15T00:52:49.661Z,13.30
2023-02-15T00:55:18.252Z,13.70
2023-02-15T00:57:46.624Z,12.00
2023-02-15T01:00:15.625Z,13.40
2023-02-15T01:02:44.028Z,11.50
2023-02-15T01:05:12.702Z,13.50
2023-02-15T01:07:41.083Z,11.50
2023-02-15T01:10:09.982Z,13.90
2023-02-15T01:12:38.340Z,12.70
2023-02-15T01:15:08.659Z,13.90
2023-02-15T01:17:37.069Z,12.20
2023-02-15T01:20:07.447Z,12.40
2023-02-15T01:22:35.711Z,13.30
2023-02-15T01:25:04.633Z,12.00
2023-02-15T01:27:32.917Z,13.80
2023-02-15T01:30:02.058Z,10.60
2023-02-15T01:32:30.588Z,13.50
2023-02-15T01:34:59.076Z,11.80
2023-02-15T01:37:28.979Z,13.50
2023-02-15T01:39:57.820Z,13.90
2023-02-15T01:42:27.595Z,11.90
2023-02-15T01:44:59.317Z,13.90
2023-02-15T01:47:45.141Z,11.50
2023-02-15T01:50:39.472Z,12.20
2023-02-15T01:53:16.892Z,12.00
2023-02-15T01:55:52.874Z,11.00
2023-02-15T01:58:23.999Z,15.30
2023-02-15T02:00:55.277Z,10.90
2023-02-15T02:03:37.769Z,15.60
2023-02-15T02:06:07.359Z,13.60
2023-02-15T02:08:35.845Z,13.40
2023-02-15T02:11:04.118Z,13.70
2023-02-15T02:13:32.948Z,12.40
2023-02-15T02:16:19.983Z,11.40
2023-02-15T02:18:59.562Z,12.40
2023-02-15T02:22:03.402Z,14.00
2023-02-15T02:28:38.900Z,11.40
2023-02-15T02:31:29.587Z,13.50
2023-02-15T02:34:10.104Z,12.90
2023-02-15T02:36:48.724Z,13.40
2023-02-15T02:39:51.513Z,13.20
2023-02-15T02:42:37.110Z,13.00
2023-02-15T02:45:11.300Z,13.30
2023-02-15T02:47:54.794Z,14.10
2023-02-15T02:50:29.298Z,12.00
2023-02-15T02:52:59.896Z,13.90
2023-02-15T02:55:43.246Z,12.70
2023-02-15T02:58:21.180Z,16.30
2023-02-15T03:01:07.076Z,17.70
2023-02-15T03:03:45.458Z,10.30
2023-02-15T03:06:20.069Z,15.30
2023-02-15T03:09:42.733Z,12.90
2023-02-15T03:12:21.732Z,13.30
2023-02-15T03:15:05.739Z,12.60
2023-02-15T03:17:38.973Z,12.50
2023-02-15T03:20:26.573Z,13.10
2023-02-15T03:23:03.072Z,14.60
2023-02-15T03:25:37.733Z,14.20
2023-02-15T03:28:16.280Z,17.90
2023-02-15T03:30:49.272Z,14.10
2023-02-15T03:33:19.222Z,13.20
2023-02-15T03:35:58.079Z,14.80
2023-02-15T03:38:44.748Z,11.50
2023-02-15T03:41:15.893Z,13.60
2023-02-15T03:43:44.372Z,12.50
2023-02-15T03:46:16.764Z,13.50
2023-02-15T03:48:53.149Z,13.30
2023-02-15T03:51:36.029Z,15.90
2023-02-15T03:54:10.455Z,17.10
2023-02-15T03:56:42.620Z,13.20
2023-02-15T03:59:29.457Z,13.90
2023-02-15T04:02:23.737Z,15.30
2023-02-15T04:04:52.285Z,16.60
2023-02-15T04:07:20.673Z,15.90
2023-02-15T04:10:07.686Z,16.80
2023-02-15T04:12:36.073Z,18.10
2023-02-15T04:15:23.695Z,15.20
2023-02-15T04:17:52.076Z,18.20
2023-02-15T04:20:39.500Z,16.00
2023-02-15T04:23:26.922Z,14.60
2023-02-15T04:25:55.254Z,15.50
2023-02-15T04:28:23.818Z,17.30
2023-02-15T04:30:52.186Z,15.60
2023-02-15T04:33:20.741Z,13.40
2023-02-15T04:35:49.472Z,16.80
2023-02-15T04:38:18.015Z,14.90
2023-02-15T04:40:51.210Z,15.90
2023-02-15T04:43:23.251Z,21.20
2023-02-15T04:45:53.126Z,18.10
2023-02-15T04:48:21.576Z,13.90
2023-02-15T04:50:50.039Z,15.10
2023-02-15T04:53:19.471Z,15.70
2023-02-15T04:55:48.037Z,17.70
2023-02-15T04:58:16.715Z,16.20
2023-02-15T05:00:45.400Z,15.10
2023-02-15T05:03:14.082Z,16.10
2023-02-15T05:05:42.937Z,19.20
2023-02-15T05:08:11.356Z,17.40
2023-02-15T05:10:39.730Z,18.10
2023-02-15T05:13:08.322Z,16.30
2023-02-15T05:15:37.238Z,16.70
2023-02-15T05:18:07.630Z,16.10
2023-02-15T05:20:36.317Z,16.00
2023-02-15T05:23:05.357Z,18.20
2023-02-15T05:25:52.876Z,16.90
2023-02-15T05:28:22.134Z,16.60
2023-02-15T05:31:15.517Z,12.80
2023-02-15T05:33:46.140Z,17.30
2023-02-15T05:36:16.097Z,17.40
2023-02-15T05:38:45.049Z,17.30
2023-02-15T05:41:14.062Z,14.90
2023-02-15T05:43:43.548Z,16.40
2023-02-15T05:46:13.599Z,13.00
2023-02-15T05:48:43.272Z,15.40
2023-02-15T05:51:15.378Z,16.80
2023-02-15T05:53:44.548Z,15.90
2023-02-15T05:56:13.669Z,18.00
2023-02-15T05:58:43.158Z,12.80
2023-02-15T06:01:19.527Z,14.00
2023-02-15T06:03:48.775Z,14.00
2023-02-15T06:06:17.733Z,14.20
2023-02-15T06:08:46.582Z,17.00
2023-02-15T06:11:16.912Z,16.10
2023-02-15T06:13:45.408Z,20.30
2023-02-15T06:16:17.414Z,13.10
2023-02-15T06:18:47.352Z,18.60
2023-02-15T06:21:17.543Z,16.50
2023-02-15T06:23:48.040Z,16.20
2023-02-15T06:26:17.432Z,19.00
2023-02-15T06:28:46.307Z,20.20
2023-02-15T06:31:15.208Z,18.10
2023-02-15T06:33:47.918Z,18.70
2023-02-15T06:36:18.722Z,18.70
2023-02-15T06:38:47.894Z,17.40
2023-02-15T06:41:17.474Z,15.60
2023-02-15T06:43:48.142Z,16.40
2023-02-15T06:46:17.368Z,15.00
2023-02-15T06:48:46.855Z,17.30
2023-02-15T06:51:16.522Z,14.40
2023-02-15T06:53:46.560Z,17.60
2023-02-15T06:56:15.468Z,18.40
2023-02-15T06:58:47.173Z,15.10
2023-02-15T07:01:17.821Z,14.80
2023-02-15T07:03:47.159Z,15.80
2023-02-15T07:06:16.064Z,12.50
2023-02-15T07:08:45.139Z,14.70
2023-02-15T07:11:32.664Z,17.20
2023-02-15T07:14:02.591Z,16.00
2023-02-15T07:16:31.451Z,16.70
2023-02-15T07:19:00.456Z,14.20
2023-02-15T07:21:30.160Z,15.20
2023-02-15T07:24:00.199Z,15.60
2023-02-15T07:26:32.193Z,13.60
2023-02-15T07:29:01.139Z,22.20
2023-02-15T07:31:29.864Z,15.00
2023-02-15T07:34:00.743Z,14.00
2023-02-15T07:36:30.014Z,16.10
2023-02-15T07:38:59.570Z,14.20
2023-02-15T07:41:30.414Z,14.70
2023-02-15T07:44:01.558Z,13.30
2023-02-15T07:46:35.182Z,12.90
2023-02-15T07:49:06.327Z,12.90
2023-02-15T07:51:36.611Z,14.20
2023-02-15T07:54:06.640Z,12.00
2023-02-15T07:56:37.622Z,12.80
2023-02-15T07:59:06.694Z,14.30
2023-02-15T08:01:38.280Z,15.50
2023-02-15T08:04:08.934Z,11.50
2023-02-15T08:06:39.726Z,12.50
2023-02-15T08:09:10.348Z,13.30
2023-02-15T08:11:40.948Z,14.70
2023-02-15T08:14:25.716Z,13.40
2023-02-15T08:16:57.481Z,13.20
2023-02-15T08:19:31.960Z,11.40
2023-02-15T08:22:04.281Z,11.60
2023-02-15T08:24:35.650Z,11.40
2023-02-15T08:27:06.437Z,11.00
2023-02-15T08:29:36.653Z,13.30
2023-02-15T08:32:08.988Z,9.80
2023-02-15T08:34:40.396Z,12.20
2023-02-15T08:37:09.712Z,12.50
2023-02-15T08:39:38.701Z,16.60
2023-02-15T08:42:07.902Z,13.20
2023-02-15T08:44:36.811Z,13.50
2023-02-15T08:47:06.550Z,13.00
2023-02-15T08:49:36.605Z,11.00
2023-02-15T08:52:05.539Z,11.70
2023-02-15T08:54:35.319Z,12.60
2023-02-15T08:57:05.312Z,10.80
2023-02-15T08:59:34.228Z,12.70
2023-02-15T09:02:04.654Z,12.10
2023-02-15T09:04:40.514Z,8.60
2023-02-15T09:07:14.614Z,9.60
2023-02-15T09:09:46.792Z,8.30
2023-02-15T09:12:16.630Z,8.90
2023-02-15T09:14:47.207Z,8.10
2023-02-15T09:17:16.326Z,11.10
2023-02-15T09:19:45.617Z,10.50
2023-02-15T09:22:18.658Z,8.40
2023-02-15T09:24:50.183Z,8.30
2023-02-15T09:27:19.556Z,7.90
2023-02-15T09:29:50.463Z,8.80
2023-02-15T09:32:19.809Z,7.80
2023-02-15T09:34:48.688Z,8.10
2023-02-15T09:37:18.694Z,7.50
2023-02-15T09:39:49.334Z,8.30
2023-02-15T09:42:54.378Z,6.90
2023-02-15T09:45:59.763Z,9.00
2023-02-15T09:48:46.922Z,7.50
2023-02-15T09:51:58.779Z,8.20
2023-02-15T09:54:27.380Z,7.10
2023-02-15T09:57:19.455Z,8.00
2023-02-15T10:00:25.209Z,7.40
2023-02-15T10:03:18.296Z,6.20
2023-02-15T10:05:46.643Z,5.90
2023-02-15T10:08:28.448Z,7.40
2023-02-15T10:11:36.168Z,6.30
2023-02-15T10:14:16.450Z,7.80
2023-02-15T10:17:03.591Z,9.90
2023-02-15T10:19:35.214Z,6.80
2023-02-15T10:22:37.748Z,6.90
2023-02-15T10:25:18.833Z,8.60
2023-02-15T10:27:49.682Z,6.30
2023-02-15T10:30:38.211Z,7.60
2023-02-15T10:33:23.805Z,7.10
2023-02-15T10:36:04.680Z,8.50
2023-02-15T10:39:11.765Z,8.00
2023-02-15T10:42:08.361Z,7.10
2023-02-15T10:44:50.915Z,7.60
2023-02-15T10:47:29.289Z,6.80
2023-02-15T10:50:24.302Z,7.10
2023-02-15T10:55:57.445Z,11.20
2023-02-15T10:58:50.996Z,7.10
2023-02-15T11:01:52.841Z,7.70
2023-02-15T11:04:31.970Z,7.20
2023-02-15T11:07:10.876Z,6.30
2023-02-15T11:09:51.021Z,11.30
2023-02-15T11:12:27.782Z,8.30
2023-02-15T11:15:27.224Z,10.80
2023-02-15T11:18:13.430Z,7.20
2023-02-15T11:21:01.519Z,7.80
2023-02-15T11:23:34.548Z,6.10
2023-02-15T11:26:10.077Z,8.30
2023-02-15T11:28:46.278Z,8.60
2023-02-15T11:31:23.096Z,8.20
2023-02-15T11:34:02.190Z,6.30
2023-02-15T11:36:39.461Z,6.30
2023-02-15T11:39:15.846Z,7.70
2023-02-15T11:42:11.895Z,6.20
2023-02-15T11:45:06.770Z,7.30
2023-02-15T11:47:35.251Z,8.50
2023-02-15T11:50:04.559Z,6.50
2023-02-15T11:52:34.914Z,8.10
2023-02-15T11:55:03.968Z,6.50
2023-02-15T11:57:33.482Z,7.60
2023-02-15T12:00:20.618Z,8.30
2023-02-15T12:02:54.409Z,13.80
2023-02-15T12:05:28.711Z,6.30
2023-02-15T12:08:11.742Z,10.40
2023-02-15T12:11:27.154Z,8.20
2023-02-15T12:14:17.835Z,7.50
2023-02-15T12:16:57.534Z,8.10
2023-02-15T12:19:44.084Z,8.00
2023-02-15T12:22:25.516Z,7.50
2023-02-15T12:24:59.537Z,6.70
2023-02-15T12:27:36.726Z,7.70
2023-02-15T12:30:31.924Z,7.50
2023-02-15T12:33:39.587Z,6.50
2023-02-15T12:36:16.346Z,6.60
2023-02-15T12:39:22.321Z,10.70
2023-02-15T12:42:30.325Z,7.70
2023-02-15T12:45:05.562Z,7.50
2023-02-15T12:47:41.197Z,9.20
2023-02-15T12:50:35.288Z,6.80
2023-02-15T12:53:14.821Z,7.70
2023-02-15T12:56:00.664Z,7.80
2023-02-15T12:58:32.484Z,7.10
2023-02-15T19:41:07.555Z,14.00
2023-02-15T19:43:35.678Z,26.20
2023-02-15T19:46:04.106Z,20.70
2023-02-15T19:48:32.027Z,21.50
2023-02-15T19:51:02.511Z,17.90
2023-02-15T19:53:35.341Z,14.50
2023-02-15T19:56:07.459Z,15.80
2023-02-15T19:58:35.582Z,16.80
2023-02-15T20:01:05.634Z,19.80
2023-02-15T20:03:36.598Z,17.40
2023-02-15T20:06:10.408Z,16.10
2023-02-15T20:08:38.462Z,13.00
2023-02-15T20:11:11.062Z,13.00
2023-02-15T20:13:41.502Z,11.80
2023-02-15T20:16:09.929Z,15.70
2023-02-15T20:18:45.920Z,11.20
2023-02-15T20:21:16.222Z,15.20
2023-02-15T20:23:43.884Z,10.30
2023-02-15T20:26:17.692Z,13.10
2023-02-15T20:28:45.908Z,13.60
2023-02-15T20:31:19.998Z,13.60
2023-02-15T20:33:48.379Z,13.30
2023-02-15T20:36:18.572Z,12.60
2023-02-15T20:38:46.961Z,13.20
2023-02-15T20:41:36.304Z,16.50
2023-02-15T20:44:28.672Z,17.30
2023-02-15T20:46:58.572Z,18.10
2023-02-15T20:49:27.705Z,13.50
2023-02-15T20:51:56.732Z,12.40
2023-02-15T20:54:26.609Z,18.30
2023-02-15T20:56:56.813Z,13.60
2023-02-15T20:59:26.327Z,17.00
2023-02-15T21:01:59.277Z,15.40
2023-02-15T21:04:33.636Z,16.20
2023-02-15T21:07:02.419Z,17.20
2023-02-15T21:09:29.875Z,15.10
2023-02-15T21:14:27.952Z,16.80
2023-02-15T21:16:55.392Z,16.50
2023-02-15T21:19:24.425Z,20.00
2023-02-15T21:21:53.376Z,15.80
2023-02-15T21:24:23.418Z,18.80
2023-02-15T21:26:51.878Z,19.10
2023-02-15T21:29:23.660Z,17.10
2023-02-15T21:31:51.685Z,13.00
2023-02-15T21:34:19.888Z,13.10
2023-02-15T21:36:50.072Z,16.90
2023-02-15T21:39:20.214Z,16.20
2023-02-15T21:42:08.303Z,13.30
2023-02-15T21:44:54.359Z,13.10
2023-02-15T21:47:41.703Z,10.50
2023-02-15T21:50:33.793Z,13.90
2023-02-15T21:53:04.259Z,21.40
2023-02-15T21:55:32.730Z,14.20
2023-02-15T21:58:01.501Z,15.60
2023-02-15T22:03:00.474Z,13.50
2023-02-15T22:05:33.365Z,14.90
2023-02-15T22:08:00.930Z,16.10
2023-02-15T22:10:34.612Z,13.00
2023-02-15T22:13:03.305Z,13.20
2023-02-15T22:15:36.873Z,13.20
2023-02-15T22:18:05.026Z,13.80
2023-02-15T22:20:31.998Z,13.20
2023-02-15T22:22:59.329Z,15.70
2023-02-15T22:25:26.879Z,18.70
2023-02-15T22:27:55.059Z,12.50
2023-02-15T22:30:25.025Z,14.30
2023-02-15T22:32:56.825Z,17.80
2023-02-15T22:35:27.773Z,16.70
2023-02-15T22:37:57.064Z,16.10
2023-02-15T22:40:34.009Z,15.80
2023-02-15T22:45:35.161Z,18.90
2023-02-15T22:48:02.563Z,12.60
2023-02-15T22:50:32.624Z,16.40
2023-02-15T22:53:01.280Z,13.90
2023-02-15T22:55:32.246Z,15.60
2023-02-15T22:58:00.214Z,15.30
2023-02-15T23:00:33.520Z,17.80
2023-02-15T23:03:01.242Z,18.80
2023-02-15T23:05:30.542Z,15.70
2023-02-15T23:07:57.678Z,14.60
2023-02-15T23:10:28.649Z,14.90
2023-02-15T23:13:17.871Z,17.10
2023-02-15T23:15:55.045Z,17.40
2023-02-15T23:18:36.439Z,16.40
2023-02-15T23:21:20.289Z,13.60
2023-02-15T23:23:52.022Z,19.10
2023-02-15T23:26:28.413Z,12.70
2023-02-15T23:28:58.515Z,16.30
2023-02-15T23:31:31.740Z,12.90
2023-02-15T23:34:01.241Z,14.80
2023-02-15T23:36:36.365Z,17.40
2023-02-15T23:39:39.354Z,15.80
2023-02-15T23:42:11.478Z,14.30
2023-02-15T23:44:40.304Z,15.40
2023-02-15T23:47:20.058Z,18.40
2023-02-15T23:49:47.139Z,11.80
2023-02-15T23:54:41.098Z,14.10
2023-02-15T23:57:12.471Z,15.30
2023-02-15T23:59:43.706Z,15.40
